<?xml version="1.0" encoding="utf-8" standalone="yes"?>
<gpx version="1.1" creator="GPS Visualizer https://www.gpsvisualizer.com/" xmlns="http://www.topografix.com/GPX/1/1" xmlns:xsi="http://www.w3.org/2001/XMLSchema-instance" xsi:schemaLocation="http://www.topografix.com/GPX/1/1 http://www.topografix.com/GPX/1/1/gpx.xsd http://www.garmin.com/xmlschemas/TrackPointExtension/v2 http://www.garmin.com/xmlschemas/TrackPointExtensionv2.xsd http://www.garmin.com/xmlschemas/GpxExtensions/v3 http://www.garmin.com/xmlschemas/GpxExtensionsv3.xsd" xmlns:gpxtpx="http://www.garmin.com/xmlschemas/TrackPointExtension/v2" xmlns:gpxx="http://www.garmin.com/xmlschemas/GpxExtensions/v3">
<wpt lat="43.181083" lon="-2.165583">
  <ele>996.5</ele>
  <name>GAZUME</name>
</wpt>
<wpt lat="43.175233" lon="-2.159583">
  <ele>849.7</ele>
  <name>ZELATUN</name>
</wpt>
<wpt lat="43.16685" lon="-2.146">
  <ele>1057.1</ele>
  <name>AITZPEL</name>
</wpt>
<wpt lat="43.170283" lon="-2.152733">
  <ele>1072.0</ele>
  <name>ERNIO</name>
</wpt>
<wpt lat="43.202667" lon="-2.197633">
  <ele>513.0</ele>
  <name>ETUMETA</name>
</wpt>
<trk>
  <name>ernio</name>
  <trkseg>
    <trkpt lat="43.152817" lon="-2.161117">
      <ele>541.612</ele>
      <time>2004-03-27T08:49:22Z</time>
    </trkpt>
    <trkpt lat="43.1526" lon="-2.16135">
      <ele>544.512</ele>
      <time>2004-03-27T08:52:50Z</time>
    </trkpt>
    <trkpt lat="43.15305" lon="-2.160433">
      <ele>555.61</ele>
      <time>2004-03-27T08:54:05Z</time>
    </trkpt>
    <trkpt lat="43.1533" lon="-2.159867">
      <ele>565.994</ele>
      <time>2004-03-27T08:54:52Z</time>
    </trkpt>
    <trkpt lat="43.15305" lon="-2.158867">
      <ele>575.994</ele>
      <time>2004-03-27T08:55:49Z</time>
    </trkpt>
    <trkpt lat="43.152267" lon="-2.157617">
      <ele>569.267</ele>
      <time>2004-03-27T08:57:09Z</time>
    </trkpt>
    <trkpt lat="43.152517" lon="-2.1563">
      <ele>565.715</ele>
      <time>2004-03-27T08:58:19Z</time>
    </trkpt>
    <trkpt lat="43.152883" lon="-2.1553">
      <ele>572.119</ele>
      <time>2004-03-27T08:59:19Z</time>
    </trkpt>
    <trkpt lat="43.153367" lon="-2.154717">
      <ele>581.182</ele>
      <time>2004-03-27T09:00:27Z</time>
    </trkpt>
    <trkpt lat="43.154833" lon="-2.153317">
      <ele>612.736</ele>
      <time>2004-03-27T09:02:58Z</time>
    </trkpt>
    <trkpt lat="43.15485" lon="-2.15205">
      <ele>622.805</ele>
      <time>2004-03-27T09:04:09Z</time>
    </trkpt>
    <trkpt lat="43.15545" lon="-2.151633">
      <ele>630.825</ele>
      <time>2004-03-27T09:05:10Z</time>
    </trkpt>
    <trkpt lat="43.156417" lon="-2.151617">
      <ele>642.719</ele>
      <time>2004-03-27T09:06:28Z</time>
    </trkpt>
    <trkpt lat="43.15695" lon="-2.151633">
      <ele>644.147</ele>
      <time>2004-03-27T09:08:46Z</time>
    </trkpt>
    <trkpt lat="43.157517" lon="-2.15145">
      <ele>665.696</ele>
      <time>2004-03-27T09:10:09Z</time>
    </trkpt>
    <trkpt lat="43.158383" lon="-2.150483">
      <ele>701.54</ele>
      <time>2004-03-27T09:12:19Z</time>
    </trkpt>
    <trkpt lat="43.15905" lon="-2.1492">
      <ele>723.4</ele>
      <time>2004-03-27T09:14:21Z</time>
    </trkpt>
    <trkpt lat="43.158583" lon="-2.147683">
      <ele>736.31</ele>
      <time>2004-03-27T09:16:06Z</time>
    </trkpt>
    <trkpt lat="43.158433" lon="-2.14685">
      <ele>752.506</ele>
      <time>2004-03-27T09:17:09Z</time>
    </trkpt>
    <trkpt lat="43.1594" lon="-2.147867">
      <ele>759.794</ele>
      <time>2004-03-27T09:20:10Z</time>
    </trkpt>
    <trkpt lat="43.16015" lon="-2.14845">
      <ele>768.594</ele>
      <time>2004-03-27T09:21:12Z</time>
    </trkpt>
    <trkpt lat="43.1595" lon="-2.146633">
      <ele>789.6</ele>
      <time>2004-03-27T09:24:00Z</time>
    </trkpt>
    <trkpt lat="43.1592" lon="-2.145733">
      <ele>796.048</ele>
      <time>2004-03-27T09:24:51Z</time>
    </trkpt>
    <trkpt lat="43.1591" lon="-2.14465">
      <ele>807.378</ele>
      <time>2004-03-27T09:25:47Z</time>
    </trkpt>
    <trkpt lat="43.15895" lon="-2.1435">
      <ele>819.828</ele>
      <time>2004-03-27T09:27:30Z</time>
    </trkpt>
    <trkpt lat="43.157983" lon="-2.14085">
      <ele>843.602</ele>
      <time>2004-03-27T09:30:22Z</time>
    </trkpt>
    <trkpt lat="43.157383" lon="-2.13995">
      <ele>848.728</ele>
      <time>2004-03-27T09:31:29Z</time>
    </trkpt>
    <trkpt lat="43.158483" lon="-2.141067">
      <ele>866.442</ele>
      <time>2004-03-27T09:33:37Z</time>
    </trkpt>
    <trkpt lat="43.1594" lon="-2.142117">
      <ele>882.048</ele>
      <time>2004-03-27T09:35:10Z</time>
    </trkpt>
    <trkpt lat="43.160233" lon="-2.143033">
      <ele>899.714</ele>
      <time>2004-03-27T09:36:34Z</time>
    </trkpt>
    <trkpt lat="43.160933" lon="-2.1437">
      <ele>910.385</ele>
      <time>2004-03-27T09:37:56Z</time>
    </trkpt>
    <trkpt lat="43.161417" lon="-2.1439">
      <ele>919.739</ele>
      <time>2004-03-27T09:39:01Z</time>
    </trkpt>
    <trkpt lat="43.16085" lon="-2.142383">
      <ele>932.33</ele>
      <time>2004-03-27T09:41:22Z</time>
    </trkpt>
    <trkpt lat="43.161317" lon="-2.1416">
      <ele>938.17</ele>
      <time>2004-03-27T09:42:37Z</time>
    </trkpt>
    <trkpt lat="43.161833" lon="-2.14125">
      <ele>935.799</ele>
      <time>2004-03-27T09:43:37Z</time>
    </trkpt>
    <trkpt lat="43.162367" lon="-2.140833">
      <ele>937.69</ele>
      <time>2004-03-27T09:44:47Z</time>
    </trkpt>
    <trkpt lat="43.162767" lon="-2.141017">
      <ele>952.925</ele>
      <time>2004-03-27T09:45:53Z</time>
    </trkpt>
    <trkpt lat="43.1633" lon="-2.141383">
      <ele>968.056</ele>
      <time>2004-03-27T09:47:24Z</time>
    </trkpt>
    <trkpt lat="43.16385" lon="-2.141917">
      <ele>975.336</ele>
      <time>2004-03-27T09:48:52Z</time>
    </trkpt>
    <trkpt lat="43.16465" lon="-2.1421">
      <ele>980.418</ele>
      <time>2004-03-27T09:50:22Z</time>
    </trkpt>
    <trkpt lat="43.165" lon="-2.142517">
      <ele>986.428</ele>
      <time>2004-03-27T09:51:57Z</time>
    </trkpt>
    <trkpt lat="43.165317" lon="-2.143233">
      <ele>1004.258</ele>
      <time>2004-03-27T09:53:54Z</time>
    </trkpt>
    <trkpt lat="43.16575" lon="-2.143917">
      <ele>1021.975</ele>
      <time>2004-03-27T09:55:50Z</time>
    </trkpt>
    <trkpt lat="43.166" lon="-2.144583">
      <ele>1042.487</ele>
      <time>2004-03-27T09:57:40Z</time>
    </trkpt>
    <trkpt lat="43.166333" lon="-2.145017">
      <ele>1052.933</ele>
      <time>2004-03-27T09:58:57Z</time>
    </trkpt>
    <trkpt lat="43.1668" lon="-2.145483">
      <ele>1053.995</ele>
      <time>2004-03-27T09:59:52Z</time>
    </trkpt>
    <trkpt lat="43.167183" lon="-2.146867">
      <ele>1057.562</ele>
      <time>2004-03-27T10:03:05Z</time>
    </trkpt>
    <trkpt lat="43.16755" lon="-2.147283">
      <ele>1046.519</ele>
      <time>2004-03-27T10:04:11Z</time>
    </trkpt>
    <trkpt lat="43.167883" lon="-2.148033">
      <ele>1033.073</ele>
      <time>2004-03-27T10:05:44Z</time>
    </trkpt>
    <trkpt lat="43.168183" lon="-2.148933">
      <ele>1025.068</ele>
      <time>2004-03-27T10:07:01Z</time>
    </trkpt>
    <trkpt lat="43.1685" lon="-2.149683">
      <ele>1028.828</ele>
      <time>2004-03-27T10:08:11Z</time>
    </trkpt>
    <trkpt lat="43.168933" lon="-2.150517">
      <ele>1039.484</ele>
      <time>2004-03-27T10:09:39Z</time>
    </trkpt>
    <trkpt lat="43.1694" lon="-2.151">
      <ele>1045.44</ele>
      <time>2004-03-27T10:10:46Z</time>
    </trkpt>
    <trkpt lat="43.169867" lon="-2.1518">
      <ele>1051.247</ele>
      <time>2004-03-27T10:12:21Z</time>
    </trkpt>
    <trkpt lat="43.170217" lon="-2.152317">
      <ele>1059.413</ele>
      <time>2004-03-27T10:14:25Z</time>
    </trkpt>
    <trkpt lat="43.170233" lon="-2.152817">
      <ele>1071.231</ele>
      <time>2004-03-27T10:16:15Z</time>
    </trkpt>
    <trkpt lat="43.16995" lon="-2.15275">
      <ele>1055.768</ele>
      <time>2004-03-27T10:18:50Z</time>
    </trkpt>
    <trkpt lat="43.169533" lon="-2.152217">
      <ele>1041.816</ele>
      <time>2004-03-27T10:19:36Z</time>
    </trkpt>
    <trkpt lat="43.1694" lon="-2.1532">
      <ele>1012.563</ele>
      <time>2004-03-27T10:20:34Z</time>
    </trkpt>
    <trkpt lat="43.1697" lon="-2.154267">
      <ele>988.97</ele>
      <time>2004-03-27T10:21:37Z</time>
    </trkpt>
    <trkpt lat="43.16995" lon="-2.155583">
      <ele>959.834</ele>
      <time>2004-03-27T10:22:46Z</time>
    </trkpt>
    <trkpt lat="43.170133" lon="-2.156167">
      <ele>938.608</ele>
      <time>2004-03-27T10:23:43Z</time>
    </trkpt>
    <trkpt lat="43.171167" lon="-2.157083">
      <ele>906.037</ele>
      <time>2004-03-27T10:25:08Z</time>
    </trkpt>
    <trkpt lat="43.171767" lon="-2.157633">
      <ele>895.237</ele>
      <time>2004-03-27T10:25:55Z</time>
    </trkpt>
    <trkpt lat="43.17235" lon="-2.158267">
      <ele>882.595</ele>
      <time>2004-03-27T10:26:49Z</time>
    </trkpt>
    <trkpt lat="43.172717" lon="-2.158983">
      <ele>869.056</ele>
      <time>2004-03-27T10:27:34Z</time>
    </trkpt>
    <trkpt lat="43.1735" lon="-2.159833">
      <ele>854.331</ele>
      <time>2004-03-27T10:29:02Z</time>
    </trkpt>
    <trkpt lat="43.172933" lon="-2.1601">
      <ele>843.552</ele>
      <time>2004-03-27T10:31:04Z</time>
    </trkpt>
    <trkpt lat="43.171933" lon="-2.15935">
      <ele>827.749</ele>
      <time>2004-03-27T10:33:00Z</time>
    </trkpt>
    <trkpt lat="43.17105" lon="-2.158433">
      <ele>820.916</ele>
      <time>2004-03-27T10:34:10Z</time>
    </trkpt>
    <trkpt lat="43.170133" lon="-2.1581">
      <ele>804.79</ele>
      <time>2004-03-27T10:35:05Z</time>
    </trkpt>
    <trkpt lat="43.169117" lon="-2.15755">
      <ele>788.162</ele>
      <time>2004-03-27T10:36:02Z</time>
    </trkpt>
    <trkpt lat="43.168433" lon="-2.157383">
      <ele>781.34</ele>
      <time>2004-03-27T10:36:45Z</time>
    </trkpt>
    <trkpt lat="43.1675" lon="-2.15695">
      <ele>775.72</ele>
      <time>2004-03-27T10:37:40Z</time>
    </trkpt>
    <trkpt lat="43.166767" lon="-2.156683">
      <ele>769.084</ele>
      <time>2004-03-27T10:38:28Z</time>
    </trkpt>
    <trkpt lat="43.16625" lon="-2.156283">
      <ele>758.668</ele>
      <time>2004-03-27T10:38:58Z</time>
    </trkpt>
    <trkpt lat="43.1649" lon="-2.15515">
      <ele>725.46</ele>
      <time>2004-03-27T10:40:32Z</time>
    </trkpt>
    <trkpt lat="43.164483" lon="-2.154767">
      <ele>717.792</ele>
      <time>2004-03-27T10:41:08Z</time>
    </trkpt>
    <trkpt lat="43.16335" lon="-2.154433">
      <ele>698.593</ele>
      <time>2004-03-27T10:42:30Z</time>
    </trkpt>
    <trkpt lat="43.162567" lon="-2.15395">
      <ele>687.625</ele>
      <time>2004-03-27T10:43:21Z</time>
    </trkpt>
    <trkpt lat="43.162233" lon="-2.153167">
      <ele>680.553</ele>
      <time>2004-03-27T10:44:26Z</time>
    </trkpt>
    <trkpt lat="43.161633" lon="-2.152483">
      <ele>666.202</ele>
      <time>2004-03-27T10:45:17Z</time>
    </trkpt>
    <trkpt lat="43.161067" lon="-2.152933">
      <ele>662.752</ele>
      <time>2004-03-27T10:46:08Z</time>
    </trkpt>
    <trkpt lat="43.15965" lon="-2.153367">
      <ele>662.178</ele>
      <time>2004-03-27T10:47:48Z</time>
    </trkpt>
    <trkpt lat="43.159033" lon="-2.153433">
      <ele>657.771</ele>
      <time>2004-03-27T10:48:26Z</time>
    </trkpt>
    <trkpt lat="43.157917" lon="-2.15245">
      <ele>654.225</ele>
      <time>2004-03-27T10:49:50Z</time>
    </trkpt>
    <trkpt lat="43.157383" lon="-2.151883">
      <ele>650.558</ele>
      <time>2004-03-27T10:50:35Z</time>
    </trkpt>
    <trkpt lat="43.156717" lon="-2.151483">
      <ele>638.295</ele>
      <time>2004-03-27T10:51:17Z</time>
    </trkpt>
    <trkpt lat="43.15585" lon="-2.15135">
      <ele>633.988</ele>
      <time>2004-03-27T10:52:06Z</time>
    </trkpt>
    <trkpt lat="43.155233" lon="-2.151717">
      <ele>630.001</ele>
      <time>2004-03-27T10:52:50Z</time>
    </trkpt>
    <trkpt lat="43.155083" lon="-2.152817">
      <ele>625.576</ele>
      <time>2004-03-27T10:53:49Z</time>
    </trkpt>
    <trkpt lat="43.153767" lon="-2.1541">
      <ele>591.311</ele>
      <time>2004-03-27T10:55:42Z</time>
    </trkpt>
    <trkpt lat="43.15325" lon="-2.154617">
      <ele>581.236</ele>
      <time>2004-03-27T10:56:23Z</time>
    </trkpt>
    <trkpt lat="43.1529" lon="-2.155733">
      <ele>567.528</ele>
      <time>2004-03-27T10:57:16Z</time>
    </trkpt>
    <trkpt lat="43.1533" lon="-2.16005">
      <ele>562.16</ele>
      <time>2004-03-27T11:01:24Z</time>
    </trkpt>
    <trkpt lat="43.152933" lon="-2.1608">
      <ele>548.2</ele>
      <time>2004-03-27T11:02:14Z</time>
    </trkpt>
  </trkseg>
</trk>
</gpx>
